sensor_id;sensor_type;location;lat;lon;timestamp;temperature;humidity
30037;DHT22;36325;51.512;-0.382;2024-03-02T01:19:06;5.00;99.90
30037;DHT22;36325;51.512;-0.382;2024-03-02T10:39:39;7.00;99.90
30037;DHT22;36325;51.512;-0.382;2024-03-02T10:42:07;6.30;99.90
30037;DHT22;36325;51.512;-0.382;2024-03-02T10:44:34;6.30;99.90
30037;DHT22;36325;51.512;-0.382;2024-03-02T10:47:03;6.30;99.90
30037;DHT22;36325;51.512;-0.382;2024-03-02T10:49:33;6.30;99.90
30037;DHT22;36325;51.512;-0.382;2024-03-02T10:52:00;6.20;99.90
30037;DHT22;36325;51.512;-0.382;2024-03-02T10:54:28;6.20;99.90
30037;DHT22;36325;51.512;-0.382;2024-03-02T10:57:04;6.20;99.90
30037;DHT22;36325;51.512;-0.382;2024-03-02T10:59:33;6.10;99.90
30037;DHT22;36325;51.512;-0.382;2024-03-02T11:02:00;6.00;99.90
30037;DHT22;36325;51.512;-0.382;2024-03-02T11:04:30;6.00;99.90
30037;DHT22;36325;51.512;-0.382;2024-03-02T11:07:06;5.80;99.90
30037;DHT22;36325;51.512;-0.382;2024-03-02T11:09:34;6.20;99.90
30037;DHT22;36325;51.512;-0.382;2024-03-02T11:12:04;5.90;99.90
30037;DHT22;36325;51.512;-0.382;2024-03-02T11:14:33;5.90;99.90
30037;DHT22;36325;51.512;-0.382;2024-03-02T11:17:02;6.10;99.90
30037;DHT22;36325;51.512;-0.382;2024-03-02T11:19:30;6.50;99.90
30037;DHT22;36325;51.512;-0.382;2024-03-02T11:21:58;7.00;99.90
30037;DHT22;36325;51.512;-0.382;2024-03-02T11:27:04;7.10;99.90
30037;DHT22;36325;51.512;-0.382;2024-03-02T11:29:42;7.00;99.90
30037;DHT22;36325;51.512;-0.382;2024-03-02T11:34:41;7.00;99.90
30037;DHT22;36325;51.512;-0.382;2024-03-02T11:37:17;7.30;99.90
30037;DHT22;36325;51.512;-0.382;2024-03-02T11:39:45;8.30;99.90
30037;DHT22;36325;51.512;-0.382;2024-03-02T11:42:15;8.40;99.90
30037;DHT22;36325;51.512;-0.382;2024-03-02T11:44:44;8.70;99.90
30037;DHT22;36325;51.512;-0.382;2024-03-02T11:47:14;8.70;99.90
30037;DHT22;36325;51.512;-0.382;2024-03-02T11:49:49;8.80;99.90
30037;DHT22;36325;51.512;-0.382;2024-03-02T11:52:17;8.70;99.90
30037;DHT22;36325;51.512;-0.382;2024-03-02T11:54:45;8.50;99.90
30037;DHT22;36325;51.512;-0.382;2024-03-02T11:57:18;8.20;99.90
30037;DHT22;36325;51.512;-0.382;2024-03-02T11:59:46;8.10;99.90
30037;DHT22;36325;51.512;-0.382;2024-03-02T12:02:14;8.10;99.90
30037;DHT22;36325;51.512;-0.382;2024-03-02T12:04:42;8.50;99.90
30037;DHT22;36325;51.512;-0.382;2024-03-02T12:07:10;8.50;99.90
30037;DHT22;36325;51.512;-0.382;2024-03-02T12:09:38;8.50;99.90
30037;DHT22;36325;51.512;-0.382;2024-03-02T12:12:06;8.60;99.90
30037;DHT22;36325;51.512;-0.382;2024-03-02T12:14:34;8.60;99.90
30037;DHT22;36325;51.512;-0.382;2024-03-02T12:17:04;8.30;99.90
30037;DHT22;36325;51.512;-0.382;2024-03-02T12:19:32;8.20;99.90
30037;DHT22;36325;51.512;-0.382;2024-03-02T12:22:00;8.20;99.90
30037;DHT22;36325;51.512;-0.382;2024-03-02T12:24:29;8.10;99.90
30037;DHT22;36325;51.512;-0.382;2024-03-02T12:26:56;8.20;99.90
30037;DHT22;36325;51.512;-0.382;2024-03-02T12:29:24;8.80;99.90
30037;DHT22;36325;51.512;-0.382;2024-03-02T12:31:52;8.80;99.90
30037;DHT22;36325;51.512;-0.382;2024-03-02T12:34:21;9.00;99.90
30037;DHT22;36325;51.512;-0.382;2024-03-02T12:36:48;8.90;99.90
30037;DHT22;36325;51.512;-0.382;2024-03-02T12:39:20;8.90;99.90
30037;DHT22;36325;51.512;-0.382;2024-03-02T12:41:49;9.00;99.90
30037;DHT22;36325;51.512;-0.382;2024-03-02T12:44:20;9.50;99.90
30037;DHT22;36325;51.512;-0.382;2024-03-02T12:46:48;9.70;99.90
30037;DHT22;36325;51.512;-0.382;2024-03-02T12:49:15;9.90;99.90
30037;DHT22;36325;51.512;-0.382;2024-03-02T12:51:43;10.00;99.90
30037;DHT22;36325;51.512;-0.382;2024-03-02T12:54:14;10.20;99.90
30037;DHT22;36325;51.512;-0.382;2024-03-02T12:56:41;10.00;99.90
30037;DHT22;36325;51.512;-0.382;2024-03-02T12:59:20;9.80;99.90
30037;DHT22;36325;51.512;-0.382;2024-03-02T13:01:55;9.40;99.90
30037;DHT22;36325;51.512;-0.382;2024-03-02T13:04:26;9.10;99.90
30037;DHT22;36325;51.512;-0.382;2024-03-02T13:06:55;8.80;99.90
30037;DHT22;36325;51.512;-0.382;2024-03-02T13:09:25;8.60;99.90
30037;DHT22;36325;51.512;-0.382;2024-03-02T13:11:52;8.80;99.90
30037;DHT22;36325;51.512;-0.382;2024-03-02T13:14:21;10.30;99.90
30037;DHT22;36325;51.512;-0.382;2024-03-02T13:16:48;11.60;99.90
30037;DHT22;36325;51.512;-0.382;2024-03-02T13:19:17;13.20;99.90
30037;DHT22;36325;51.512;-0.382;2024-03-02T13:21:45;14.70;99.90
30037;DHT22;36325;51.512;-0.382;2024-03-02T13:24:13;14.80;99.90
30037;DHT22;36325;51.512;-0.382;2024-03-02T13:26:40;15.30;99.90
30037;DHT22;36325;51.512;-0.382;2024-03-02T13:29:08;15.80;99.90
30037;DHT22;36325;51.512;-0.382;2024-03-02T13:31:35;16.30;99.90
30037;DHT22;36325;51.512;-0.382;2024-03-02T13:34:02;15.40;99.90
30037;DHT22;36325;51.512;-0.382;2024-03-02T13:39:25;13.10;99.90
30037;DHT22;36325;51.512;-0.382;2024-03-02T13:41:54;13.10;99.90
30037;DHT22;36325;51.512;-0.382;2024-03-02T13:44:30;12.60;99.90
30037;DHT22;36325;51.512;-0.382;2024-03-02T13:46:59;12.50;99.90
30037;DHT22;36325;51.512;-0.382;2024-03-02T13:49:26;13.70;99.90
30037;DHT22;36325;51.512;-0.382;2024-03-02T13:52:05;13.50;99.90
30037;DHT22;36325;51.512;-0.382;2024-03-02T13:54:38;12.70;99.90
30037;DHT22;36325;51.512;-0.382;2024-03-02T13:57:07;12.20;99.90
30037;DHT22;36325;51.512;-0.382;2024-03-02T13:59:35;11.60;99.90
30037;DHT22;36325;51.512;-0.382;2024-03-02T14:02:02;11.40;99.90
30037;DHT22;36325;51.512;-0.382;2024-03-02T14:04:33;11.20;99.90
30037;DHT22;36325;51.512;-0.382;2024-03-02T14:07:01;11.60;99.90
30037;DHT22;36325;51.512;-0.382;2024-03-02T14:09:29;15.00;99.90
30037;DHT22;36325;51.512;-0.382;2024-03-02T14:11:57;11.50;99.90
30037;DHT22;36325;51.512;-0.382;2024-03-02T14:14:24;11.20;99.90
30037;DHT22;36325;51.512;-0.382;2024-03-02T14:16:52;10.80;99.90
30037;DHT22;36325;51.512;-0.382;2024-03-02T14:19:19;10.50;99.90
30037;DHT22;36325;51.512;-0.382;2024-03-02T14:21:48;10.40;99.90
30037;DHT22;36325;51.512;-0.382;2024-03-02T14:24:15;10.30;99.90
30037;DHT22;36325;51.512;-0.382;2024-03-02T14:26:43;10.10;99.90
30037;DHT22;36325;51.512;-0.382;2024-03-02T14:29:10;10.10;99.90
30037;DHT22;36325;51.512;-0.382;2024-03-02T14:31:38;10.00;99.90
30037;DHT22;36325;51.512;-0.382;2024-03-02T14:34:05;9.90;99.90
30037;DHT22;36325;51.512;-0.382;2024-03-02T14:36:32;10.30;99.90
30037;DHT22;36325;51.512;-0.382;2024-03-02T14:39:00;10.70;99.90
30037;DHT22;36325;51.512;-0.382;2024-03-02T14:41:28;12.60;99.90
30037;DHT22;36325;51.512;-0.382;2024-03-02T14:43:56;14.30;99.90
30037;DHT22;36325;51.512;-0.382;2024-03-02T14:46:31;15.40;99.90
30037;DHT22;36325;51.512;-0.382;2024-03-02T14:49:02;16.60;99.90
30037;DHT22;36325;51.512;-0.382;2024-03-02T14:51:30;16.70;99.90
30037;DHT22;36325;51.512;-0.382;2024-03-02T14:53:57;15.60;99.90
30037;DHT22;36325;51.512;-0.382;2024-03-02T14:56:26;14.30;99.90
30037;DHT22;36325;51.512;-0.382;2024-03-02T14:58:53;13.30;99.90
30037;DHT22;36325;51.512;-0.382;2024-03-02T15:01:22;12.40;99.90
30037;DHT22;36325;51.512;-0.382;2024-03-02T15:03:52;11.90;99.90
30037;DHT22;36325;51.512;-0.382;2024-03-02T15:06:20;11.40;99.90
30037;DHT22;36325;51.512;-0.382;2024-03-02T15:08:49;10.80;99.90
30037;DHT22;36325;51.512;-0.382;2024-03-02T15:11:17;10.70;99.90
30037;DHT22;36325;51.512;-0.382;2024-03-02T15:13:47;10.50;99.90
30037;DHT22;36325;51.512;-0.382;2024-03-02T15:16:15;10.60;99.90
30037;DHT22;36325;51.512;-0.382;2024-03-02T15:18:44;10.40;99.90
30037;DHT22;36325;51.512;-0.382;2024-03-02T15:21:12;10.30;99.90
30037;DHT22;36325;51.512;-0.382;2024-03-02T15:23:40;10.20;99.90
30037;DHT22;36325;51.512;-0.382;2024-03-02T15:26:07;10.10;99.90
30037;DHT22;36325;51.512;-0.382;2024-03-02T15:28:36;10.00;99.90
30037;DHT22;36325;51.512;-0.382;2024-03-02T15:31:04;9.90;99.90
30037;DHT22;36325;51.512;-0.382;2024-03-02T15:33:32;9.70;99.90
30037;DHT22;36325;51.512;-0.382;2024-03-02T15:36:00;9.60;99.90
30037;DHT22;36325;51.512;-0.382;2024-03-02T15:38:31;9.40;99.90
30037;DHT22;36325;51.512;-0.382;2024-03-02T15:41:01;9.40;99.90
30037;DHT22;36325;51.512;-0.382;2024-03-02T15:43:29;10.30;99.90
30037;DHT22;36325;51.512;-0.382;2024-03-02T15:45:58;11.20;99.90
30037;DHT22;36325;51.512;-0.382;2024-03-02T15:48:26;12.60;99.90
30037;DHT22;36325;51.512;-0.382;2024-03-02T15:50:55;13.70;99.90
30037;DHT22;36325;51.512;-0.382;2024-03-02T15:53:22;14.30;99.90
30037;DHT22;36325;51.512;-0.382;2024-03-02T15:55:50;15.00;99.90
30037;DHT22;36325;51.512;-0.382;2024-03-02T15:58:18;15.60;99.90
30037;DHT22;36325;51.512;-0.382;2024-03-02T16:00:46;15.90;99.90
30037;DHT22;36325;51.512;-0.382;2024-03-02T16:03:14;16.10;99.90
30037;DHT22;36325;51.512;-0.382;2024-03-02T16:05:42;16.50;99.90
30037;DHT22;36325;51.512;-0.382;2024-03-02T16:08:09;16.60;99.90
30037;DHT22;36325;51.512;-0.382;2024-03-02T16:10:37;16.30;99.90
30037;DHT22;36325;51.512;-0.382;2024-03-02T16:13:04;16.70;99.90
30037;DHT22;36325;51.512;-0.382;2024-03-02T16:15:32;16.80;99.90
30037;DHT22;36325;51.512;-0.382;2024-03-02T16:18:01;17.20;99.90
30037;DHT22;36325;51.512;-0.382;2024-03-02T16:20:29;17.50;99.90
30037;DHT22;36325;51.512;-0.382;2024-03-02T16:22:56;17.70;99.90
30037;DHT22;36325;51.512;-0.382;2024-03-02T16:25:24;17.80;99.90
30037;DHT22;36325;51.512;-0.382;2024-03-02T16:27:53;17.70;99.90
30037;DHT22;36325;51.512;-0.382;2024-03-02T16:30:21;17.40;99.90
30037;DHT22;36325;51.512;-0.382;2024-03-02T16:32:51;17.30;99.90
30037;DHT22;36325;51.512;-0.382;2024-03-02T16:35:19;16.90;99.90
30037;DHT22;36325;51.512;-0.382;2024-03-02T16:37:47;16.70;99.90
30037;DHT22;36325;51.512;-0.382;2024-03-02T16:40:14;16.50;99.90
30037;DHT22;36325;51.512;-0.382;2024-03-02T16:42:45;16.50;99.90
30037;DHT22;36325;51.512;-0.382;2024-03-02T16:45:13;16.20;99.90
30037;DHT22;36325;51.512;-0.382;2024-03-02T16:47:40;15.10;99.90
30037;DHT22;36325;51.512;-0.382;2024-03-02T16:50:08;14.90;99.90
30037;DHT22;36325;51.512;-0.382;2024-03-02T16:52:39;14.20;99.90
30037;DHT22;36325;51.512;-0.382;2024-03-02T16:55:07;13.50;99.90
30037;DHT22;36325;51.512;-0.382;2024-03-02T16:57:35;12.70;99.90
30037;DHT22;36325;51.512;-0.382;2024-03-02T17:02:30;10.80;99.90
30037;DHT22;36325;51.512;-0.382;2024-03-02T17:04:57;10.40;99.90
30037;DHT22;36325;51.512;-0.382;2024-03-02T17:07:25;10.30;99.90
30037;DHT22;36325;51.512;-0.382;2024-03-02T17:09:55;9.70;99.90
30037;DHT22;36325;51.512;-0.382;2024-03-02T17:12:25;9.50;99.90
30037;DHT22;36325;51.512;-0.382;2024-03-02T17:14:52;9.20;99.90
30037;DHT22;36325;51.512;-0.382;2024-03-02T17:17:21;8.90;99.90
30037;DHT22;36325;51.512;-0.382;2024-03-02T17:19:49;8.80;99.90
30037;DHT22;36325;51.512;-0.382;2024-03-02T17:22:16;8.60;99.90
30037;DHT22;36325;51.512;-0.382;2024-03-02T17:24:44;8.40;99.90
30037;DHT22;36325;51.512;-0.382;2024-03-02T17:27:12;8.30;99.90
30037;DHT22;36325;51.512;-0.382;2024-03-02T17:29:40;8.20;99.90
30037;DHT22;36325;51.512;-0.382;2024-03-02T17:32:08;8.10;99.90
30037;DHT22;36325;51.512;-0.382;2024-03-02T17:34:36;7.90;99.90
30037;DHT22;36325;51.512;-0.382;2024-03-02T17:37:03;7.90;99.90
30037;DHT22;36325;51.512;-0.382;2024-03-02T17:39:31;7.80;99.90
30037;DHT22;36325;51.512;-0.382;2024-03-02T17:41:58;7.70;99.90
30037;DHT22;36325;51.512;-0.382;2024-03-02T17:44:25;7.70;99.90
30037;DHT22;36325;51.512;-0.382;2024-03-02T17:46:53;7.60;99.90
30037;DHT22;36325;51.512;-0.382;2024-03-02T17:49:23;7.60;99.90
30037;DHT22;36325;51.512;-0.382;2024-03-02T17:51:50;7.50;99.90
30037;DHT22;36325;51.512;-0.382;2024-03-02T17:54:17;7.40;99.90
30037;DHT22;36325;51.512;-0.382;2024-03-02T17:56:45;7.30;99.90
30037;DHT22;36325;51.512;-0.382;2024-03-02T17:59:12;7.30;99.90
30037;DHT22;36325;51.512;-0.382;2024-03-02T18:01:39;8.60;99.90
30037;DHT22;36325;51.512;-0.382;2024-03-02T18:04:07;7.20;99.90
30037;DHT22;36325;51.512;-0.382;2024-03-02T18:06:36;7.10;99.90
30037;DHT22;36325;51.512;-0.382;2024-03-02T18:09:07;7.10;99.90
30037;DHT22;36325;51.512;-0.382;2024-03-02T18:11:34;7.00;99.90
30037;DHT22;36325;51.512;-0.382;2024-03-02T18:14:01;7.00;99.90
30037;DHT22;36325;51.512;-0.382;2024-03-02T18:16:31;6.90;99.90
30037;DHT22;36325;51.512;-0.382;2024-03-02T18:19:00;6.90;99.90
30037;DHT22;36325;51.512;-0.382;2024-03-02T18:21:27;6.90;99.90
30037;DHT22;36325;51.512;-0.382;2024-03-02T18:23:55;6.80;99.90
30037;DHT22;36325;51.512;-0.382;2024-03-02T18:26:22;6.80;99.90
30037;DHT22;36325;51.512;-0.382;2024-03-02T18:28:51;6.70;99.90
30037;DHT22;36325;51.512;-0.382;2024-03-02T18:31:18;6.70;99.90
30037;DHT22;36325;51.512;-0.382;2024-03-02T18:33:49;6.60;99.90
30037;DHT22;36325;51.512;-0.382;2024-03-02T18:36:16;6.60;99.90
30037;DHT22;36325;51.512;-0.382;2024-03-02T18:38:46;6.60;99.90
30037;DHT22;36325;51.512;-0.382;2024-03-02T18:41:13;6.60;99.90
30037;DHT22;36325;51.512;-0.382;2024-03-02T18:43:41;6.50;99.90
30037;DHT22;36325;51.512;-0.382;2024-03-02T18:46:10;6.50;99.90
30037;DHT22;36325;51.512;-0.382;2024-03-02T18:48:38;6.50;99.90
30037;DHT22;36325;51.512;-0.382;2024-03-02T18:51:06;6.40;99.90
30037;DHT22;36325;51.512;-0.382;2024-03-02T18:53:35;6.50;99.90
30037;DHT22;36325;51.512;-0.382;2024-03-02T18:56:03;6.60;99.90
30037;DHT22;36325;51.512;-0.382;2024-03-02T18:58:34;6.60;99.90
30037;DHT22;36325;51.512;-0.382;2024-03-02T19:01:01;6.60;99.90
30037;DHT22;36325;51.512;-0.382;2024-03-02T19:03:29;6.60;99.90
30037;DHT22;36325;51.512;-0.382;2024-03-02T19:05:57;6.50;99.90
30037;DHT22;36325;51.512;-0.382;2024-03-02T19:08:25;6.50;99.90
30037;DHT22;36325;51.512;-0.382;2024-03-02T19:10:52;6.40;99.90
30037;DHT22;36325;51.512;-0.382;2024-03-02T19:13:20;6.40;99.90
30037;DHT22;36325;51.512;-0.382;2024-03-02T19:15:48;6.30;99.90
30037;DHT22;36325;51.512;-0.382;2024-03-02T19:18:19;6.20;99.90
30037;DHT22;36325;51.512;-0.382;2024-03-02T19:20:46;6.20;99.90
30037;DHT22;36325;51.512;-0.382;2024-03-02T19:23:23;6.20;99.90
30037;DHT22;36325;51.512;-0.382;2024-03-02T19:25:54;6.10;99.90
30037;DHT22;36325;51.512;-0.382;2024-03-02T19:28:23;6.10;99.90
30037;DHT22;36325;51.512;-0.382;2024-03-02T19:30:51;6.00;99.90
30037;DHT22;36325;51.512;-0.382;2024-03-02T19:33:18;6.00;99.90
30037;DHT22;36325;51.512;-0.382;2024-03-02T19:35:45;5.90;99.90
30037;DHT22;36325;51.512;-0.382;2024-03-02T19:38:13;5.90;99.90
30037;DHT22;36325;51.512;-0.382;2024-03-02T19:40:41;5.80;99.90
30037;DHT22;36325;51.512;-0.382;2024-03-02T19:43:08;5.80;99.90
30037;DHT22;36325;51.512;-0.382;2024-03-02T19:45:36;5.80;99.90
30037;DHT22;36325;51.512;-0.382;2024-03-02T19:48:03;5.70;99.90
30037;DHT22;36325;51.512;-0.382;2024-03-02T19:50:34;5.60;99.90
30037;DHT22;36325;51.512;-0.382;2024-03-02T19:53:01;5.70;99.90
30037;DHT22;36325;51.512;-0.382;2024-03-02T19:55:29;5.70;99.90
30037;DHT22;36325;51.512;-0.382;2024-03-02T19:57:57;5.60;99.90
30037;DHT22;36325;51.512;-0.382;2024-03-02T20:00:24;5.60;99.90
30037;DHT22;36325;51.512;-0.382;2024-03-02T20:02:52;5.60;99.90
30037;DHT22;36325;51.512;-0.382;2024-03-02T20:05:22;5.50;99.90
30037;DHT22;36325;51.512;-0.382;2024-03-02T20:07:51;5.50;99.90
30037;DHT22;36325;51.512;-0.382;2024-03-02T20:10:18;5.50;99.90
30037;DHT22;36325;51.512;-0.382;2024-03-02T20:12:47;5.50;99.90
30037;DHT22;36325;51.512;-0.382;2024-03-02T20:15:14;5.40;99.90
30037;DHT22;36325;51.512;-0.382;2024-03-02T20:17:44;5.40;99.90
30037;DHT22;36325;51.512;-0.382;2024-03-02T20:20:12;5.40;99.90
30037;DHT22;36325;51.512;-0.382;2024-03-02T20:22:43;5.40;99.90
30037;DHT22;36325;51.512;-0.382;2024-03-02T20:25:10;5.30;99.90
30037;DHT22;36325;51.512;-0.382;2024-03-02T20:27:40;5.20;99.90
30037;DHT22;36325;51.512;-0.382;2024-03-02T20:30:09;5.30;99.90
30037;DHT22;36325;51.512;-0.382;2024-03-02T20:32:37;5.20;99.90
30037;DHT22;36325;51.512;-0.382;2024-03-02T20:35:05;5.20;99.90
30037;DHT22;36325;51.512;-0.382;2024-03-02T20:37:33;5.20;99.90
30037;DHT22;36325;51.512;-0.382;2024-03-02T20:40:01;5.10;99.90
30037;DHT22;36325;51.512;-0.382;2024-03-02T20:42:28;5.20;99.90
30037;DHT22;36325;51.512;-0.382;2024-03-02T20:44:56;5.10;99.90
30037;DHT22;36325;51.512;-0.382;2024-03-02T20:47:26;5.10;99.90
30037;DHT22;36325;51.512;-0.382;2024-03-02T20:49:54;5.10;99.90
30037;DHT22;36325;51.512;-0.382;2024-03-02T20:52:21;5.00;99.90
30037;DHT22;36325;51.512;-0.382;2024-03-02T20:54:50;5.00;99.90
30037;DHT22;36325;51.512;-0.382;2024-03-02T20:57:18;4.90;99.90
30037;DHT22;36325;51.512;-0.382;2024-03-02T20:59:46;4.90;99.90
30037;DHT22;36325;51.512;-0.382;2024-03-02T21:02:15;4.80;99.90
30037;DHT22;36325;51.512;-0.382;2024-03-02T21:04:43;4.80;99.90
30037;DHT22;36325;51.512;-0.382;2024-03-02T21:07:14;4.70;99.90
30037;DHT22;36325;51.512;-0.382;2024-03-02T21:09:41;4.60;99.90
30037;DHT22;36325;51.512;-0.382;2024-03-02T21:12:09;4.50;99.90
30037;DHT22;36325;51.512;-0.382;2024-03-02T21:14:36;4.50;99.90
30037;DHT22;36325;51.512;-0.382;2024-03-02T21:17:07;4.50;99.90
30037;DHT22;36325;51.512;-0.382;2024-03-02T21:19:34;4.50;99.90
30037;DHT22;36325;51.512;-0.382;2024-03-02T21:22:01;4.40;99.90
30037;DHT22;36325;51.512;-0.382;2024-03-02T21:24:36;4.50;99.90
30037;DHT22;36325;51.512;-0.382;2024-03-02T21:27:07;4.50;99.90
30037;DHT22;36325;51.512;-0.382;2024-03-02T21:29:36;4.50;99.90
30037;DHT22;36325;51.512;-0.382;2024-03-02T21:32:04;4.50;99.90
30037;DHT22;36325;51.512;-0.382;2024-03-02T21:34:32;4.60;99.90
30037;DHT22;36325;51.512;-0.382;2024-03-02T21:36:59;4.60;99.90
30037;DHT22;36325;51.512;-0.382;2024-03-02T21:39:31;4.60;99.90
30037;DHT22;36325;51.512;-0.382;2024-03-02T21:42:04;4.60;99.90
30037;DHT22;36325;51.512;-0.382;2024-03-02T21:44:32;4.60;99.90
30037;DHT22;36325;51.512;-0.382;2024-03-02T21:47:00;4.50;99.90
30037;DHT22;36325;51.512;-0.382;2024-03-02T21:49:30;4.50;99.90
30037;DHT22;36325;51.512;-0.382;2024-03-02T21:51:57;4.50;99.90
30037;DHT22;36325;51.512;-0.382;2024-03-02T21:54:28;4.50;99.90
30037;DHT22;36325;51.512;-0.382;2024-03-02T21:56:56;4.50;99.90
30037;DHT22;36325;51.512;-0.382;2024-03-02T21:59:25;4.40;99.90
30037;DHT22;36325;51.512;-0.382;2024-03-02T22:01:52;4.40;99.90
30037;DHT22;36325;51.512;-0.382;2024-03-02T22:04:23;4.40;99.90
30037;DHT22;36325;51.512;-0.382;2024-03-02T22:06:50;4.40;99.90
30037;DHT22;36325;51.512;-0.382;2024-03-02T22:09:19;4.40;99.90
30037;DHT22;36325;51.512;-0.382;2024-03-02T22:11:50;4.40;99.90
30037;DHT22;36325;51.512;-0.382;2024-03-02T22:14:19;4.40;99.90
30037;DHT22;36325;51.512;-0.382;2024-03-02T22:16:48;4.40;99.90
30037;DHT22;36325;51.512;-0.382;2024-03-02T22:19:17;4.40;99.90
30037;DHT22;36325;51.512;-0.382;2024-03-02T22:21:45;4.40;99.90
30037;DHT22;36325;51.512;-0.382;2024-03-02T22:24:13;4.40;99.90
30037;DHT22;36325;51.512;-0.382;2024-03-02T22:26:41;4.40;99.90
30037;DHT22;36325;51.512;-0.382;2024-03-02T22:29:08;4.40;99.90
30037;DHT22;36325;51.512;-0.382;2024-03-02T22:31:36;4.40;99.90
30037;DHT22;36325;51.512;-0.382;2024-03-02T22:34:03;4.40;99.90
30037;DHT22;36325;51.512;-0.382;2024-03-02T22:36:31;4.30;99.90
30037;DHT22;36325;51.512;-0.382;2024-03-02T22:38:58;4.30;99.90
30037;DHT22;36325;51.512;-0.382;2024-03-02T22:41:27;4.30;99.90
30037;DHT22;36325;51.512;-0.382;2024-03-02T22:43:55;4.20;99.90
30037;DHT22;36325;51.512;-0.382;2024-03-02T22:46:23;4.10;99.90
30037;DHT22;36325;51.512;-0.382;2024-03-02T22:48:52;4.10;99.90
30037;DHT22;36325;51.512;-0.382;2024-03-02T22:51:24;4.10;99.90
30037;DHT22;36325;51.512;-0.382;2024-03-02T22:53:53;4.10;99.90
30037;DHT22;36325;51.512;-0.382;2024-03-02T22:56:21;4.10;99.90
30037;DHT22;36325;51.512;-0.382;2024-03-02T22:58:49;4.10;99.90
30037;DHT22;36325;51.512;-0.382;2024-03-02T23:01:16;4.10;99.90
30037;DHT22;36325;51.512;-0.382;2024-03-02T23:03:48;4.10;99.90
30037;DHT22;36325;51.512;-0.382;2024-03-02T23:06:15;4.10;99.90
30037;DHT22;36325;51.512;-0.382;2024-03-02T23:08:43;4.10;99.90
30037;DHT22;36325;51.512;-0.382;2024-03-02T23:11:10;4.10;99.90
30037;DHT22;36325;51.512;-0.382;2024-03-02T23:13:38;4.10;99.90
30037;DHT22;36325;51.512;-0.382;2024-03-02T23:16:06;4.00;99.90
30037;DHT22;36325;51.512;-0.382;2024-03-02T23:18:34;4.00;99.90
30037;DHT22;36325;51.512;-0.382;2024-03-02T23:21:02;4.00;99.90
30037;DHT22;36325;51.512;-0.382;2024-03-02T23:23:30;3.90;99.90
30037;DHT22;36325;51.512;-0.382;2024-03-02T23:25:57;3.90;99.90
30037;DHT22;36325;51.512;-0.382;2024-03-02T23:28:27;3.90;99.90
30037;DHT22;36325;51.512;-0.382;2024-03-02T23:30:55;3.90;99.90
30037;DHT22;36325;51.512;-0.382;2024-03-02T23:33:26;3.80;99.90
30037;DHT22;36325;51.512;-0.382;2024-03-02T23:35:53;3.80;99.90
30037;DHT22;36325;51.512;-0.382;2024-03-02T23:38:22;3.60;99.90
30037;DHT22;36325;51.512;-0.382;2024-03-02T23:40:51;4.10;99.90
30037;DHT22;36325;51.512;-0.382;2024-03-02T23:43:35;3.80;99.90
30037;DHT22;36325;51.512;-0.382;2024-03-02T23:46:06;3.80;99.90
30037;DHT22;36325;51.512;-0.382;2024-03-02T23:48:34;3.70;99.90
30037;DHT22;36325;51.512;-0.382;2024-03-02T23:51:03;3.80;99.90
30037;DHT22;36325;51.512;-0.382;2024-03-02T23:53:31;3.80;99.90
30037;DHT22;36325;51.512;-0.382;2024-03-02T23:56:07;3.80;99.90
30037;DHT22;36325;51.512;-0.382;2024-03-02T23:58:37;3.70;99.90
